DLH891 EVRA-EDDF
Flight info
| Callsign | DLH891 |
|---|---|
| Flight time | N/A |
| Altitude | 38000 |
| Route | VALED M869 LEP M864 ADAXA DCT NINTA DCT DIPEB DCT GOSOT DCT BANUB DCT POVEL DCT RIMET/N0439F350 T157 KOKEB/N0382F230 T157 KERAX KERAX5A |
| Aircraft | A319/M-SDE2E3FGIJ1LORWXYZ/HB1 |
Departure
| Time | N/A |
|---|---|
| Airport | Riga International Airport (EVRA) |
Arrival
| Time | 2026-05-06 18:17 |
|---|---|
| Airport | Frankfurt Main Airport (EDDF) |
| Time | Latitude | Longitude | Altitude | Speed | Heading |
|---|---|---|---|---|---|
| 2026-05-06 17:37 | 52.64697 | 11.55448 | 37853 ft | 403 kts | 221° |
| 2026-05-06 17:37 | 52.60452 | 11.49420 | 37849 ft | 402 kts | 221° |
| 2026-05-06 17:38 | 52.56206 | 11.43404 | 37849 ft | 402 kts | 221° |
| 2026-05-06 17:38 | 52.51964 | 11.37404 | 37847 ft | 402 kts | 221° |
| 2026-05-06 17:39 | 52.47722 | 11.31413 | 37846 ft | 402 kts | 221° |
| 2026-05-06 17:39 | 52.43498 | 11.25472 | 37846 ft | 402 kts | 220° |
| 2026-05-06 17:40 | 52.39246 | 11.19518 | 37847 ft | 402 kts | 220° |
| 2026-05-06 17:40 | 52.34993 | 11.13559 | 37844 ft | 402 kts | 220° |
| 2026-05-06 17:41 | 52.30738 | 11.07619 | 37843 ft | 402 kts | 220° |
| 2026-05-06 17:41 | 52.26477 | 11.01680 | 37843 ft | 402 kts | 221° |
| 2026-05-06 17:42 | 52.22212 | 10.95754 | 37841 ft | 402 kts | 220° |
| 2026-05-06 17:42 | 52.17939 | 10.89842 | 37841 ft | 402 kts | 220° |
| 2026-05-06 17:43 | 52.13648 | 10.83985 | 37841 ft | 402 kts | 217° |
| 2026-05-06 17:43 | 52.08741 | 10.79593 | 37840 ft | 403 kts | 207° |
| 2026-05-06 17:44 | 52.03669 | 10.75645 | 37839 ft | 404 kts | 207° |
| 2026-05-06 17:44 | 51.98597 | 10.71703 | 37840 ft | 404 kts | 207° |
| 2026-05-06 17:45 | 51.93524 | 10.67781 | 37840 ft | 404 kts | 207° |
| 2026-05-06 17:45 | 51.88455 | 10.63867 | 37839 ft | 404 kts | 207° |
| 2026-05-06 17:46 | 51.83383 | 10.59951 | 37838 ft | 403 kts | 207° |
| 2026-05-06 17:46 | 51.78314 | 10.56072 | 37837 ft | 403 kts | 207° |
| 2026-05-06 17:47 | 51.75777 | 10.54127 | 37726 ft | 404 kts | 207° |
| 2026-05-06 17:47 | 51.73245 | 10.52187 | 37474 ft | 402 kts | 207° |
| 2026-05-06 17:47 | 51.70720 | 10.50255 | 37221 ft | 401 kts | 207° |
| 2026-05-06 17:47 | 51.68233 | 10.48356 | 36974 ft | 401 kts | 207° |
| 2026-05-06 17:48 | 51.65718 | 10.46437 | 36727 ft | 399 kts | 206° |
| 2026-05-06 17:48 | 51.63205 | 10.44524 | 36479 ft | 399 kts | 207° |
| 2026-05-06 17:48 | 51.60695 | 10.42612 | 36228 ft | 399 kts | 207° |
| 2026-05-06 17:48 | 51.58185 | 10.40703 | 35980 ft | 401 kts | 206° |
| 2026-05-06 17:49 | 51.55650 | 10.38777 | 35721 ft | 402 kts | 207° |
| 2026-05-06 17:49 | 51.53131 | 10.36862 | 35229 ft | 399 kts | 207° |
| 2026-05-06 17:49 | 51.50633 | 10.34966 | 34714 ft | 395 kts | 207° |
| 2026-05-06 17:49 | 51.48157 | 10.33089 | 34221 ft | 391 kts | 207° |
| 2026-05-06 17:50 | 51.45706 | 10.31238 | 33703 ft | 388 kts | 207° |
| 2026-05-06 17:50 | 51.43274 | 10.29407 | 33204 ft | 384 kts | 207° |
| 2026-05-06 17:50 | 51.40867 | 10.27600 | 32699 ft | 380 kts | 207° |
| 2026-05-06 17:50 | 51.38483 | 10.25808 | 32210 ft | 377 kts | 207° |
| 2026-05-06 17:51 | 51.36114 | 10.24029 | 31724 ft | 373 kts | 206° |
| 2026-05-06 17:51 | 51.33678 | 10.22630 | 31203 ft | 372 kts | 197° |
| 2026-05-06 17:51 | 51.31124 | 10.21948 | 30689 ft | 373 kts | 187° |
| 2026-05-06 17:51 | 51.28533 | 10.21855 | 30176 ft | 371 kts | 184° |
| 2026-05-06 17:52 | 51.26821 | 10.21829 | 29833 ft | 370 kts | 184° |
| 2026-05-06 17:52 | 51.24263 | 10.21785 | 29341 ft | 366 kts | 184° |
| 2026-05-06 17:52 | 51.21722 | 10.21736 | 28854 ft | 363 kts | 184° |
| 2026-05-06 17:52 | 51.18389 | 10.21667 | 28233 ft | 360 kts | 184° |
| 2026-05-06 17:53 | 51.15891 | 10.21612 | 27770 ft | 357 kts | 184° |
| 2026-05-06 17:53 | 51.14215 | 10.21575 | 27463 ft | 355 kts | 184° |
| 2026-05-06 17:53 | 51.11754 | 10.21524 | 27043 ft | 353 kts | 184° |
| 2026-05-06 17:53 | 51.09309 | 10.21477 | 26608 ft | 350 kts | 184° |
| 2026-05-06 17:54 | 51.06884 | 10.21428 | 26192 ft | 347 kts | 184° |
| 2026-05-06 17:54 | 51.04509 | 10.21382 | 25782 ft | 343 kts | 184° |
| 2026-05-06 17:54 | 51.02134 | 10.21340 | 25344 ft | 340 kts | 184° |
| 2026-05-06 17:54 | 50.99774 | 10.21300 | 24924 ft | 337 kts | 184° |
| 2026-05-06 17:55 | 50.97441 | 10.21260 | 24487 ft | 334 kts | 184° |
| 2026-05-06 17:55 | 50.95128 | 10.21223 | 24047 ft | 331 kts | 184° |
| 2026-05-06 17:55 | 50.92832 | 10.21187 | 23604 ft | 328 kts | 184° |
| 2026-05-06 17:55 | 50.90555 | 10.21149 | 23151 ft | 326 kts | 184° |
| 2026-05-06 17:56 | 50.88294 | 10.21110 | 22705 ft | 324 kts | 184° |
| 2026-05-06 17:56 | 50.86042 | 10.21070 | 22234 ft | 323 kts | 184° |
| 2026-05-06 17:56 | 50.83803 | 10.20898 | 21755 ft | 320 kts | 192° |
| 2026-05-06 17:56 | 50.81679 | 10.19939 | 21299 ft | 316 kts | 205° |
| 2026-05-06 17:57 | 50.79800 | 10.18187 | 20852 ft | 313 kts | 219° |
| 2026-05-06 17:57 | 50.78271 | 10.15775 | 20430 ft | 310 kts | 232° |
| 2026-05-06 17:57 | 50.77158 | 10.12866 | 20009 ft | 309 kts | 242° |
| 2026-05-06 17:57 | 50.76198 | 10.09820 | 19594 ft | 308 kts | 242° |
| 2026-05-06 17:58 | 50.75235 | 10.06802 | 19180 ft | 306 kts | 242° |
| 2026-05-06 17:58 | 50.74276 | 10.03808 | 18771 ft | 305 kts | 242° |
| 2026-05-06 17:58 | 50.73321 | 10.00834 | 18366 ft | 303 kts | 241° |
| 2026-05-06 17:58 | 50.72369 | 9.97877 | 17971 ft | 301 kts | 242° |
| 2026-05-06 17:59 | 50.71422 | 9.94936 | 17579 ft | 299 kts | 242° |
| 2026-05-06 17:59 | 50.70482 | 9.92014 | 17189 ft | 298 kts | 242° |
| 2026-05-06 17:59 | 50.69545 | 9.89103 | 16798 ft | 296 kts | 242° |
| 2026-05-06 17:59 | 50.68618 | 9.86210 | 16413 ft | 295 kts | 242° |
| 2026-05-06 18:00 | 50.67693 | 9.83326 | 16076 ft | 293 kts | 242° |
| 2026-05-06 18:00 | 50.66772 | 9.80467 | 15734 ft | 292 kts | 242° |
| 2026-05-06 18:00 | 50.65864 | 9.77656 | 15371 ft | 292 kts | 242° |
| 2026-05-06 18:00 | 50.64945 | 9.74816 | 15000 ft | 291 kts | 242° |
| 2026-05-06 18:01 | 50.64026 | 9.71976 | 14624 ft | 290 kts | 242° |
| 2026-05-06 18:01 | 50.62939 | 9.69311 | 14220 ft | 290 kts | 230° |
| 2026-05-06 18:01 | 50.61465 | 9.67155 | 13807 ft | 290 kts | 216° |
| 2026-05-06 18:01 | 50.59688 | 9.65639 | 13426 ft | 292 kts | 203° |
| 2026-05-06 18:02 | 50.57786 | 9.64489 | 13022 ft | 293 kts | 202° |
| 2026-05-06 18:02 | 50.55880 | 9.63333 | 12624 ft | 293 kts | 202° |
| 2026-05-06 18:02 | 50.53991 | 9.62182 | 12313 ft | 289 kts | 202° |
| 2026-05-06 18:02 | 50.52138 | 9.61051 | 12167 ft | 280 kts | 202° |
| 2026-05-06 18:03 | 50.50344 | 9.59963 | 12032 ft | 272 kts | 202° |
| 2026-05-06 18:03 | 50.48691 | 9.58634 | 11843 ft | 264 kts | 219° |
| 2026-05-06 18:03 | 50.47432 | 9.56584 | 11561 ft | 260 kts | 230° |
| 2026-05-06 18:03 | 50.46245 | 9.54439 | 11226 ft | 260 kts | 229° |
| 2026-05-06 18:04 | 50.45059 | 9.52299 | 10897 ft | 259 kts | 229° |
| 2026-05-06 18:04 | 50.43878 | 9.50169 | 10799 ft | 259 kts | 229° |
| 2026-05-06 18:04 | 50.42689 | 9.48027 | 10801 ft | 261 kts | 229° |
| 2026-05-06 18:04 | 50.41495 | 9.45876 | 10752 ft | 262 kts | 229° |
| 2026-05-06 18:05 | 50.40306 | 9.43732 | 10489 ft | 259 kts | 229° |
| 2026-05-06 18:05 | 50.39127 | 9.41606 | 10164 ft | 258 kts | 229° |
| 2026-05-06 18:05 | 50.37949 | 9.39489 | 9817 ft | 258 kts | 229° |
| 2026-05-06 18:05 | 50.36771 | 9.37372 | 9473 ft | 258 kts | 229° |
| 2026-05-06 18:06 | 50.35595 | 9.35262 | 9131 ft | 256 kts | 229° |
| 2026-05-06 18:06 | 50.34426 | 9.33165 | 8783 ft | 255 kts | 229° |
| 2026-05-06 18:06 | 50.33277 | 9.31103 | 8430 ft | 254 kts | 229° |
| 2026-05-06 18:06 | 50.32103 | 9.29002 | 8060 ft | 253 kts | 229° |
| 2026-05-06 18:07 | 50.30959 | 9.26961 | 7675 ft | 252 kts | 230° |
| 2026-05-06 18:07 | 50.29807 | 9.24902 | 7305 ft | 251 kts | 230° |
| 2026-05-06 18:07 | 50.28664 | 9.22857 | 6941 ft | 249 kts | 230° |
| 2026-05-06 18:07 | 50.27527 | 9.20826 | 6806 ft | 247 kts | 230° |
| 2026-05-06 18:08 | 50.26391 | 9.18793 | 6812 ft | 249 kts | 230° |
| 2026-05-06 18:08 | 50.25250 | 9.16757 | 6781 ft | 250 kts | 230° |
| 2026-05-06 18:08 | 50.24109 | 9.14726 | 6487 ft | 247 kts | 230° |
| 2026-05-06 18:08 | 50.22978 | 9.12712 | 6110 ft | 245 kts | 230° |
| 2026-05-06 18:09 | 50.21841 | 9.10690 | 5734 ft | 244 kts | 230° |
| 2026-05-06 18:09 | 50.20725 | 9.08708 | 5352 ft | 243 kts | 230° |
| 2026-05-06 18:09 | 50.19628 | 9.06755 | 4976 ft | 242 kts | 230° |
| 2026-05-06 18:09 | 50.18508 | 9.04764 | 4597 ft | 240 kts | 230° |
| 2026-05-06 18:10 | 50.17422 | 9.02838 | 4234 ft | 239 kts | 230° |
| 2026-05-06 18:10 | 50.16322 | 9.00895 | 3875 ft | 238 kts | 230° |
| 2026-05-06 18:10 | 50.15238 | 8.98986 | 3730 ft | 228 kts | 230° |
| 2026-05-06 18:10 | 50.14225 | 8.97200 | 3733 ft | 213 kts | 230° |
| 2026-05-06 18:11 | 50.13257 | 8.95488 | 3740 ft | 209 kts | 230° |
| 2026-05-06 18:11 | 50.12370 | 8.93707 | 3743 ft | 207 kts | 243° |
| 2026-05-06 18:11 | 50.11806 | 8.91658 | 3883 ft | 206 kts | 251° |
| 2026-05-06 18:11 | 50.11305 | 8.89542 | 3990 ft | 208 kts | 251° |
| 2026-05-06 18:12 | 50.10823 | 8.87488 | 4005 ft | 194 kts | 251° |
| 2026-05-06 18:12 | 50.10377 | 8.85585 | 3909 ft | 183 kts | 252° |
| 2026-05-06 18:12 | 50.09945 | 8.83751 | 3692 ft | 178 kts | 251° |
| 2026-05-06 18:12 | 50.09525 | 8.81964 | 3466 ft | 175 kts | 252° |
| 2026-05-06 18:13 | 50.09108 | 8.80194 | 3248 ft | 173 kts | 252° |
| 2026-05-06 18:13 | 50.08699 | 8.78463 | 3031 ft | 172 kts | 252° |
| 2026-05-06 18:13 | 50.08287 | 8.76714 | 2801 ft | 172 kts | 252° |
| 2026-05-06 18:13 | 50.07877 | 8.74968 | 2564 ft | 171 kts | 253° |
| 2026-05-06 18:14 | 50.07607 | 8.73183 | 2306 ft | 167 kts | 262° |
| 2026-05-06 18:14 | 50.07420 | 8.71440 | 2043 ft | 159 kts | 258° |
| 2026-05-06 18:14 | 50.07068 | 8.69892 | 1894 ft | 145 kts | 252° |
| 2026-05-06 18:14 | 50.06773 | 8.68441 | 1712 ft | 138 kts | 256° |
| 2026-05-06 18:15 | 50.06487 | 8.67024 | 1516 ft | 137 kts | 253° |
| 2026-05-06 18:15 | 50.06155 | 8.65637 | 1330 ft | 135 kts | 252° |
| 2026-05-06 18:15 | 50.05830 | 8.64296 | 1123 ft | 131 kts | 251° |
| 2026-05-06 18:15 | 50.05510 | 8.62953 | 948 ft | 133 kts | 253° |
| 2026-05-06 18:16 | 50.05199 | 8.61586 | 805 ft | 133 kts | 251° |
| 2026-05-06 18:16 | 50.04880 | 8.60245 | 628 ft | 131 kts | 253° |
| 2026-05-06 18:16 | 50.04568 | 8.58924 | 451 ft | 131 kts | 251° |
| 2026-05-06 18:16 | 50.04258 | 8.57614 | 364 ft | 120 kts | 250° |
| 2026-05-06 18:17 | 50.04020 | 8.56625 | 359 ft | 69 kts | 250° |
| 2026-05-06 18:17 | 50.04004 | 8.56247 | 356 ft | 22 kts | 281° |
| 2026-05-06 18:17 | 50.04023 | 8.56145 | 350 ft | 4 kts | 292° |
| 2026-05-06 18:17 | 50.04032 | 8.56141 | 350 ft | 1 kts | 349° |
| 2026-05-06 18:18 | 50.04079 | 8.56130 | 355 ft | 12 kts | 3° |
| 2026-05-06 18:18 | 50.04112 | 8.56225 | 356 ft | 11 kts | 68° |
| 2026-05-06 18:18 | 50.04142 | 8.56340 | 359 ft | 12 kts | 69° |
| 2026-05-06 18:18 | 50.04176 | 8.56480 | 359 ft | 14 kts | 69° |
| 2026-05-06 18:19 | 50.04208 | 8.56615 | 362 ft | 9 kts | 70° |
| 2026-05-06 18:19 | 50.04221 | 8.56669 | 360 ft | 7 kts | 70° |
| 2026-05-06 18:19 | 50.04248 | 8.56785 | 361 ft | 15 kts | 70° |
| 2026-05-06 18:19 | 50.04287 | 8.56947 | 362 ft | 16 kts | 70° |
| 2026-05-06 18:20 | 50.04323 | 8.57102 | 361 ft | 14 kts | 69° |
| 2026-05-06 18:20 | 50.04356 | 8.57231 | 368 ft | 13 kts | 69° |
| 2026-05-06 18:20 | 50.04386 | 8.57362 | 365 ft | 13 kts | 70° |
| 2026-05-06 18:20 | 50.04417 | 8.57491 | 361 ft | 13 kts | 69° |
| 2026-05-06 18:21 | 50.04447 | 8.57623 | 367 ft | 13 kts | 69° |
| 2026-05-06 18:21 | 50.04482 | 8.57767 | 366 ft | 16 kts | 68° |
| 2026-05-06 18:21 | 50.04523 | 8.57938 | 365 ft | 18 kts | 70° |
| 2026-05-06 18:21 | 50.04572 | 8.58147 | 370 ft | 22 kts | 68° |
| 2026-05-06 18:22 | 50.04625 | 8.58355 | 370 ft | 20 kts | 70° |
| 2026-05-06 18:22 | 50.04674 | 8.58559 | 371 ft | 21 kts | 69° |
| 2026-05-06 18:22 | 50.04730 | 8.58775 | 369 ft | 21 kts | 68° |
| 2026-05-06 18:22 | 50.04777 | 8.58977 | 371 ft | 16 kts | 71° |
| 2026-05-06 18:23 | 50.04816 | 8.59081 | 368 ft | 8 kts | 4° |
| 2026-05-06 18:23 | 50.04867 | 8.59054 | 371 ft | 5 kts | 340° |
| 2026-05-06 18:23 | 50.04879 | 8.59047 | 365 ft | 0 kts | 340° |